createdAt,value
2023-02-02T01:29:41.040Z,99067.91
2023-02-02T01:32:13.535Z,99068.26
2023-02-02T01:34:46.719Z,99061.79
2023-02-02T01:37:19.001Z,99061.31
2023-02-02T01:39:51.349Z,99061.79
2023-02-02T01:42:25.402Z,99060.95
2023-02-02T01:45:26.747Z,99058.23
2023-02-02T01:48:00.767Z,99058.84
2023-02-02T01:50:34.554Z,99062.23
2023-02-02T01:53:07.288Z,99066.36
2023-02-02T01:55:41.770Z,99060.17
2023-02-02T01:58:21.925Z,99069.66
2023-02-02T02:00:54.376Z,99069.77
2023-02-02T02:03:28.833Z,99069.38
2023-02-02T02:06:12.963Z,99074.73
2023-02-02T02:09:03.632Z,99068.43
2023-02-02T02:11:37.564Z,99072.33
2023-02-02T02:14:29.693Z,99075.38
2023-02-02T02:17:52.545Z,99070.66
2023-02-02T02:20:59.704Z,99063.95
2023-02-02T02:24:22.035Z,99068.58
2023-02-02T02:27:27.523Z,99074.41
2023-02-02T02:30:33.252Z,99075.50
2023-02-02T02:33:28.422Z,99070.48
2023-02-02T02:36:17.439Z,99071.47
2023-02-02T02:39:24.816Z,99073.67
2023-02-02T02:42:02.007Z,99071.94
2023-02-02T02:44:36.012Z,99074.38
2023-02-02T02:47:09.181Z,99067.91
2023-02-02T02:49:47.051Z,99074.48
2023-02-02T02:52:19.436Z,99079.25
2023-02-02T02:54:54.998Z,99084.36
2023-02-02T02:58:00.744Z,99078.37
2023-02-02T03:00:53.312Z,99081.16
2023-02-02T03:03:53.350Z,99087.84
2023-02-02T03:06:32.398Z,99090.64
2023-02-02T03:09:18.679Z,99098.56
2023-02-02T03:11:51.468Z,99091.11
2023-02-02T03:14:23.989Z,99088.08
2023-02-02T03:16:56.926Z,99089.77
2023-02-02T03:19:29.295Z,99084.64
2023-02-02T03:22:02.187Z,99101.33
2023-02-02T03:24:35.307Z,99091.95
2023-02-02T03:27:07.852Z,99099.01
2023-02-02T03:29:40.702Z,99099.98
2023-02-02T03:32:13.524Z,99103.25
2023-02-02T03:34:46.354Z,99102.88
2023-02-02T03:37:18.804Z,99107.27
2023-02-02T03:39:53.795Z,99105.92
2023-02-02T03:42:26.293Z,99109.22
2023-02-02T03:45:00.136Z,99099.45
2023-02-02T03:47:33.455Z,99110.16
2023-02-02T03:50:09.842Z,99107.02
2023-02-02T03:52:42.922Z,99112.84
2023-02-02T03:55:15.720Z,99103.97
2023-02-02T03:57:48.198Z,99104.20
2023-02-02T04:00:21.847Z,99103.80
2023-02-02T04:02:55.260Z,99098.95
2023-02-02T04:05:28.231Z,99096.75
2023-02-02T04:08:00.925Z,99106.48
2023-02-02T04:10:33.793Z,99111.83
2023-02-02T04:13:07.264Z,99109.16
2023-02-02T04:15:40.389Z,99111.47
2023-02-02T04:18:13.384Z,99110.38
2023-02-02T04:20:46.733Z,99102.86
2023-02-02T04:23:19.491Z,99103.33
2023-02-02T04:25:53.092Z,99105.25
2023-02-02T04:28:27.310Z,99107.92
2023-02-02T04:30:59.408Z,99107.56
2023-02-02T04:33:33.263Z,99108.91
2023-02-02T04:36:06.860Z,99113.28
2023-02-02T04:38:39.326Z,99123.63
2023-02-02T04:41:14.974Z,99108.18
2023-02-02T04:43:48.120Z,99117.80
2023-02-02T04:46:20.854Z,99115.38
2023-02-02T04:48:53.325Z,99117.08
2023-02-02T04:51:37.862Z,99115.27
2023-02-02T04:54:10.264Z,99121.84
2023-02-02T04:56:43.622Z,99114.80
2023-02-02T04:59:16.025Z,99114.29
2023-02-02T05:01:48.562Z,99121.84
2023-02-02T05:04:21.215Z,99118.70
2023-02-02T05:06:54.106Z,99116.37
2023-02-02T05:09:27.123Z,99126.87
2023-02-02T05:11:59.456Z,99116.77
2023-02-02T05:14:32.008Z,99119.70
2023-02-02T05:17:04.569Z,99126.22
2023-02-02T05:19:37.269Z,99120.62
2023-02-02T05:22:10.173Z,99125.33
2023-02-02T05:24:42.836Z,99129.95
2023-02-02T05:27:16.575Z,99127.50
2023-02-02T05:29:49.831Z,99130.65
2023-02-02T05:32:22.387Z,99127.97
2023-02-02T05:34:55.922Z,99133.21
2023-02-02T05:37:28.407Z,99128.26
2023-02-02T05:40:01.061Z,99133.36
2023-02-02T05:42:34.177Z,99132.89
2023-02-02T05:45:07.951Z,99143.23
2023-02-02T05:47:42.118Z,99142.00
2023-02-02T05:50:14.575Z,99142.00
2023-02-02T05:52:49.432Z,99147.72
2023-02-02T05:55:22.572Z,99146.38
2023-02-02T05:57:55.993Z,99146.16
2023-02-02T06:00:28.672Z,99146.16
2023-02-02T06:03:01.208Z,99143.48
2023-02-02T06:05:34.344Z,99157.00
2023-02-02T06:08:07.734Z,99160.44
2023-02-02T06:10:42.381Z,99163.12
2023-02-02T06:13:14.411Z,99169.70
2023-02-02T06:15:47.299Z,99168.83
2023-02-02T06:18:20.401Z,99173.97
2023-02-02T06:21:13.774Z,99171.18
2023-02-02T06:23:46.909Z,99187.02
2023-02-02T06:26:19.623Z,99186.66
2023-02-02T06:28:54.299Z,99188.39
2023-02-02T06:31:27.011Z,99190.38
2023-02-02T06:34:00.182Z,99196.46
2023-02-02T06:36:32.899Z,99190.52
2023-02-02T06:39:06.843Z,99193.84
2023-02-02T06:41:40.797Z,99195.55
2023-02-02T06:44:15.478Z,99194.57
2023-02-02T06:46:48.617Z,99197.89
2023-02-02T06:49:21.056Z,99198.73
2023-02-02T06:51:53.489Z,99196.92
2023-02-02T06:54:26.103Z,99200.06
2023-02-02T06:56:58.630Z,99201.08
2023-02-02T06:59:31.139Z,99199.29
2023-02-02T07:02:03.618Z,99203.50
2023-02-02T07:04:36.449Z,99203.64
2023-02-02T07:07:10.626Z,99203.77
2023-02-02T07:09:43.193Z,99204.89
2023-02-02T07:12:15.764Z,99211.14
2023-02-02T07:14:48.822Z,99213.59
2023-02-02T07:17:21.558Z,99210.94
2023-02-02T07:19:54.051Z,99219.00
2023-02-02T07:22:26.657Z,99213.94
2023-02-02T10:17:58.767Z,99235.27
2023-02-02T10:20:43.758Z,99238.55
2023-02-02T10:23:24.506Z,99237.84
2023-02-02T10:26:03.551Z,99232.96
2023-02-02T10:28:47.373Z,99226.58
2023-02-02T10:31:42.030Z,99232.67
2023-02-02T10:34:34.367Z,99230.06
2023-02-02T10:37:32.657Z,99232.41
2023-02-02T10:40:25.145Z,99231.91
2023-02-02T10:43:41.295Z,99231.44
2023-02-02T10:46:35.222Z,99230.92
2023-02-02T10:49:34.285Z,99229.89
2023-02-02T10:52:19.205Z,99227.59
2023-02-02T10:55:05.996Z,99224.94
2023-02-02T10:58:01.120Z,99230.64
2023-02-02T11:00:51.440Z,99229.80
2023-02-02T11:03:35.745Z,99233.30
2023-02-02T11:06:27.311Z,99236.33
2023-02-02T11:09:04.071Z,99235.38
2023-02-02T11:11:47.043Z,99234.91
2023-02-02T11:14:35.158Z,99225.02
2023-02-02T11:17:08.171Z,99229.87
2023-02-02T11:19:41.347Z,99234.34
2023-02-02T11:22:28.304Z,99231.72
2023-02-02T11:25:02.558Z,99238.78
2023-02-02T11:27:38.546Z,99243.97
2023-02-02T11:30:45.070Z,99228.27
2023-02-02T11:33:30.344Z,99241.94
2023-02-02T11:36:27.498Z,99239.37
2023-02-02T11:39:23.011Z,99233.95
2023-02-02T11:42:05.365Z,99232.93
2023-02-02T11:44:39.644Z,99240.88
2023-02-02T11:47:29.368Z,99237.16
2023-02-02T11:50:04.710Z,99240.94
2023-02-02T11:52:40.530Z,99231.52
2023-02-02T11:55:19.586Z,99233.95
2023-02-02T11:58:30.538Z,99227.27
2023-02-02T12:01:04.265Z,99229.27
2023-02-02T12:03:39.238Z,99234.00
2023-02-02T12:06:28.125Z,99237.34
2023-02-02T12:09:05.515Z,99239.27
2023-02-02T12:12:08.343Z,99237.48
2023-02-02T12:15:19.040Z,99242.83
2023-02-02T12:17:55.599Z,99236.55
2023-02-02T12:20:44.831Z,99236.03
2023-02-02T12:23:25.201Z,99244.97
2023-02-02T12:26:30.015Z,99240.97
2023-02-02T12:29:40.724Z,99242.61
2023-02-02T12:32:54.964Z,99242.79
2023-02-02T12:35:51.798Z,99239.86
2023-02-02T12:38:43.840Z,99239.36
2023-02-02T12:41:46.894Z,99231.55
2023-02-02T12:44:45.628Z,99242.20
2023-02-02T12:47:28.828Z,99242.07
2023-02-02T12:50:21.221Z,99252.01
2023-02-02T12:53:10.531Z,99256.06
2023-02-02T12:56:11.618Z,99259.64
2023-02-02T12:59:00.867Z,99253.77
2023-02-02T13:02:07.328Z,99257.94
2023-02-02T13:04:57.607Z,99257.95
2023-02-02T13:07:46.824Z,99261.13
2023-02-02T13:10:33.477Z,99262.97
2023-02-02T13:13:14.521Z,99258.17
2023-02-02T13:15:50.606Z,99258.30
2023-02-02T13:18:42.834Z,99260.28
2023-02-02T13:21:36.442Z,99259.89
2023-02-02T13:24:31.669Z,99260.75
2023-02-02T13:27:06.061Z,99259.78
2023-02-02T13:29:58.801Z,99265.40
2023-02-02T13:32:34.831Z,99262.23
2023-02-02T13:35:23.197Z,99271.66
2023-02-02T13:38:25.702Z,99263.20
2023-02-02T13:41:01.434Z,99264.19
2023-02-02T13:44:05.377Z,99257.23
2023-02-02T13:46:58.548Z,99260.88
2023-02-02T13:49:41.110Z,99260.30
2023-02-02T13:52:39.775Z,99256.51
2023-02-02T13:55:23.065Z,99259.80
2023-02-02T13:58:21.604Z,99265.29
2023-02-02T14:00:59.959Z,99273.23
2023-02-02T14:03:42.933Z,99271.16
2023-02-02T14:06:20.594Z,99284.00
2023-02-02T14:09:05.354Z,99285.70
2023-02-02T14:11:42.332Z,99282.39
2023-02-02T14:14:32.484Z,99282.98
2023-02-02T14:17:24.857Z,99284.95
2023-02-02T14:19:58.783Z,99280.53
2023-02-02T14:22:52.532Z,99292.14
2023-02-02T14:25:48.931Z,99287.13
2023-02-02T14:28:44.399Z,99297.35
2023-02-02T14:31:29.830Z,99286.01
2023-02-02T14:34:36.548Z,99291.11
2023-02-02T14:37:28.274Z,99288.30
2023-02-02T14:40:26.680Z,99286.59
2023-02-02T14:43:38.713Z,99290.27
2023-02-02T14:46:36.689Z,99288.05
2023-02-02T14:49:13.727Z,99290.11
2023-02-02T14:51:53.595Z,99290.11
2023-02-02T14:54:30.722Z,99299.38
2023-02-02T14:57:26.013Z,99296.11
2023-02-02T15:00:01.186Z,99306.73
2023-02-02T15:02:37.071Z,99308.94
2023-02-02T15:05:35.610Z,99321.48
2023-02-02T15:08:27.817Z,99321.38
2023-02-02T15:11:05.539Z,99317.94
2023-02-02T15:13:38.357Z,99324.30
2023-02-02T15:16:19.838Z,99340.39
2023-02-02T15:18:58.428Z,99335.48
2023-02-02T15:21:30.886Z,99335.23
2023-02-02T15:24:03.751Z,99338.07
2023-02-02T15:26:40.753Z,99340.47
2023-02-02T15:29:36.305Z,99348.31
2023-02-02T15:32:22.302Z,99347.59
2023-02-02T15:35:04.451Z,99352.42
2023-02-02T15:37:41.918Z,99354.21
2023-02-02T15:40:17.870Z,99365.27
2023-02-02T15:43:08.763Z,99353.79
2023-02-02T15:45:59.487Z,99364.66
2023-02-02T15:48:34.790Z,99368.56
2023-02-02T15:51:19.811Z,99373.06
2023-02-02T15:53:52.636Z,99376.18
2023-02-02T15:56:32.023Z,99379.19
2023-02-02T15:59:04.639Z,99370.64
2023-02-02T16:01:40.429Z,99375.89
2023-02-02T16:04:18.067Z,99375.42
2023-02-02T16:06:51.066Z,99375.42
2023-02-02T16:09:31.309Z,99378.58
2023-02-02T16:12:06.068Z,99379.08
2023-02-02T16:14:39.878Z,99380.20
2023-02-02T16:17:21.754Z,99378.64
2023-02-02T16:20:00.097Z,99378.25
2023-02-02T19:28:31.220Z,99496.66
2023-02-02T19:31:04.720Z,99499.09
2023-02-02T19:33:49.857Z,99502.34
2023-02-02T19:36:25.433Z,99500.35
2023-02-02T19:39:02.059Z,99497.56
2023-02-02T19:41:34.971Z,99505.92
2023-02-02T19:44:22.143Z,99504.65
2023-02-02T19:46:56.220Z,99507.44
2023-02-02T19:49:35.295Z,99503.05
2023-02-02T19:52:10.690Z,99504.50
2023-02-02T19:54:45.454Z,99505.69
2023-02-02T19:57:36.262Z,99501.22
2023-02-02T20:00:22.515Z,99508.64
2023-02-02T20:03:06.665Z,99513.59
2023-02-02T20:05:54.823Z,99510.12
2023-02-02T20:08:41.317Z,99510.08
2023-02-02T20:11:57.452Z,99510.34
2023-02-02T20:14:34.710Z,99507.88
2023-02-02T20:17:31.182Z,99514.94
2023-02-02T20:20:03.756Z,99515.70
2023-02-02T20:22:36.372Z,99510.70
2023-02-02T20:25:09.460Z,99508.22
2023-02-02T20:27:44.039Z,99516.41
2023-02-02T20:30:33.008Z,99517.38
2023-02-02T20:33:10.499Z,99519.77
2023-02-02T20:35:48.971Z,99519.83
2023-02-02T20:38:28.556Z,99521.48
2023-02-02T20:41:00.971Z,99520.14
2023-02-02T20:43:34.935Z,99522.09
2023-02-02T20:46:07.441Z,99520.97
2023-02-02T20:48:40.229Z,99530.16
2023-02-02T20:51:13.316Z,99531.33
2023-02-02T20:53:46.191Z,99530.20
2023-02-02T20:56:19.660Z,99533.64
2023-02-02T20:58:53.008Z,99527.00
2023-02-02T21:01:26.455Z,99530.60
2023-02-02T21:03:59.661Z,99531.08
2023-02-02T21:06:32.302Z,99526.53
2023-02-02T21:09:05.867Z,99525.50
2023-02-02T21:11:38.994Z,99523.80
2023-02-02T21:14:12.250Z,99533.28
2023-02-02T21:16:45.089Z,99538.23
2023-02-02T21:19:17.889Z,99537.98
2023-02-02T21:21:50.449Z,99534.43
2023-02-02T21:24:24.080Z,99537.98
2023-02-02T21:26:58.000Z,99547.62
2023-02-02T21:29:31.623Z,99545.91
2023-02-02T21:32:04.513Z,99547.92
2023-02-02T21:34:37.888Z,99552.92
2023-02-02T21:37:16.849Z,99553.52
2023-02-02T21:39:51.632Z,99553.39
2023-02-02T21:42:26.136Z,99556.47
2023-02-02T21:48:36.412Z,99560.34
2023-02-02T21:51:26.999Z,99560.39
2023-02-02T21:53:59.503Z,99564.58
2023-02-02T21:56:39.935Z,99568.02
2023-02-02T21:59:19.123Z,99564.47
2023-02-02T22:01:52.943Z,99566.20
2023-02-02T22:04:31.912Z,99577.56
2023-02-02T22:07:15.976Z,99576.88
2023-02-02T22:09:50.559Z,99576.02
2023-02-02T22:12:28.780Z,99579.45
2023-02-02T22:15:05.898Z,99576.17
2023-02-02T22:17:43.556Z,99582.30
2023-02-02T22:20:35.971Z,99585.95
2023-02-02T22:23:12.087Z,99596.48
2023-02-02T22:25:44.661Z,99593.27
2023-02-02T22:28:23.728Z,99593.38
2023-02-02T22:30:58.926Z,99593.84
2023-02-02T22:33:31.454Z,99589.83
2023-02-02T22:36:04.469Z,99601.31
2023-02-02T22:38:37.072Z,99608.12
2023-02-02T22:41:09.788Z,99608.42
2023-02-02T22:43:42.171Z,99604.98
2023-02-02T22:46:14.532Z,99607.86
2023-02-02T22:48:47.122Z,99602.64
2023-02-02T22:51:20.314Z,99607.03
2023-02-02T22:53:52.863Z,99607.59
2023-02-02T22:56:26.296Z,99610.02
2023-02-02T22:59:01.098Z,99610.69
2023-02-02T23:01:34.654Z,99613.09
2023-02-02T23:04:07.139Z,99617.48
2023-02-02T23:06:39.557Z,99610.89
2023-02-02T23:09:12.570Z,99618.63
2023-02-02T23:11:45.819Z,99606.36
2023-02-02T23:14:19.282Z,99609.60
2023-02-02T23:16:51.854Z,99605.95
2023-02-02T23:19:24.398Z,99611.47
2023-02-02T23:21:56.860Z,99611.11
2023-02-02T23:24:29.280Z,99614.97
2023-02-02T23:27:01.621Z,99620.42
2023-02-02T23:29:33.953Z,99611.15
2023-02-02T23:32:07.273Z,99611.62
2023-02-02T23:34:40.239Z,99616.14
2023-02-02T23:37:12.614Z,99618.82
2023-02-02T23:39:45.324Z,99619.96
2023-02-02T23:42:18.033Z,99622.17
2023-02-02T23:44:50.775Z,99620.36
2023-02-02T23:47:23.426Z,99619.59
2023-02-02T23:49:55.882Z,99621.70
2023-02-02T23:52:28.364Z,99615.17
2023-02-02T23:55:01.955Z,99622.13
2023-02-02T23:57:36.194Z,99618.27
